Time;durP1;ratioP1;P1;durP2;ratioP2;P2;SDS_P1;SDS_P2;PMS_P1;PMS_P2;Temp;Humidity;BMP_temperature;BMP_pressure;BME280_temperature;BME280_humidity;BME280_pressure;Samples;Min_cycle;Max_cycle;Signal;HPM_P1;HPM_P2
2023/10/21 00:02:14;;;;;;;1.27;0.70;;;18.80;59.70;;;;;;4910760;29;20230;-49
2023/10/21 00:04:39;;;;;;;0.90;0.73;;;18.80;59.40;;;;;;4913557;29;20645;-49
2023/10/21 00:07:05;;;;;;;0.90;0.70;;;18.70;59.40;;;;;;4908147;29;20190;-48
2023/10/21 00:09:30;;;;;;;1.33;0.83;;;18.70;59.70;;;;;;4905992;29;20269;-50
2023/10/21 00:11:56;;;;;;;0.97;0.90;;;18.70;60.10;;;;;;4898304;29;20190;-49
2023/10/21 00:14:22;;;;;;;0.93;0.83;;;18.60;60.60;;;;;;4891693;29;20202;-49
2023/10/21 00:16:49;;;;;;;1.00;0.80;;;18.60;60.50;;;;;;4901232;29;20204;-49
2023/10/21 00:19:15;;;;;;;0.87;0.87;;;18.40;61.00;;;;;;4907765;29;20232;-49
2023/10/21 00:21:41;;;;;;;1.50;0.90;;;18.50;60.60;;;;;;4909197;29;20508;-50
2023/10/21 00:24:07;;;;;;;2.63;0.90;;;18.70;60.30;;;;;;4908039;29;20205;-48
2023/10/21 00:26:43;;;;;;;1.47;0.90;;;18.70;60.20;;;;;;4905179;29;20220;-50
2023/10/21 00:29:09;;;;;;;0.80;0.63;;;18.90;60.00;;;;;;4912453;29;20889;-51
2023/10/21 00:31:34;;;;;;;0.80;0.80;;;18.80;60.20;;;;;;4921156;29;20437;-49
2023/10/21 00:34:00;;;;;;;1.43;0.93;;;18.80;60.20;;;;;;4918778;29;20192;-49
2023/10/21 00:36:26;;;;;;;4.77;0.80;;;18.70;60.20;;;;;;4904735;29;20194;-53
2023/10/21 00:38:52;;;;;;;0.80;0.80;;;18.60;60.30;;;;;;4911540;29;20209;-50
2023/10/21 00:41:17;;;;;;;0.87;0.60;;;18.50;59.80;;;;;;4912483;29;20508;-49
2023/10/21 00:43:43;;;;;;;0.77;0.77;;;18.30;60.50;;;;;;4913800;29;20240;-46
2023/10/21 00:46:17;;;;;;;0.70;0.70;;;18.40;60.90;;;;;;4904126;29;20186;-48
2023/10/21 00:48:43;;;;;;;1.13;0.80;;;18.50;60.70;;;;;;4901664;29;20456;-51
2023/10/21 00:51:09;;;;;;;0.80;0.80;;;18.60;60.80;;;;;;4904976;29;20469;-50
2023/10/21 00:53:35;;;;;;;1.10;0.83;;;18.80;60.20;;;;;;4909683;29;20441;-48
2023/10/21 00:56:01;;;;;;;0.97;0.90;;;19.00;59.70;;;;;;4906114;29;21277;-50
2023/10/21 00:58:33;;;;;;;1.23;0.90;;;19.00;59.40;;;;;;4906207;29;20606;-50
2023/10/21 01:01:09;;;;;;;1.47;0.93;;;18.80;59.60;;;;;;4912013;29;20245;-49
2023/10/21 01:03:35;;;;;;;1.57;0.90;;;18.50;59.90;;;;;;4909944;29;20445;-47
2023/10/21 01:06:01;;;;;;;4.53;0.80;;;18.50;59.90;;;;;;4907679;29;20445;-50
2023/10/21 01:08:27;;;;;;;1.83;1.07;;;18.20;60.60;;;;;;4893883;29;20469;-49
2023/10/21 01:10:52;;;;;;;0.80;0.80;;;18.10;62.00;;;;;;4911152;29;20446;-49
2023/10/21 01:13:18;;;;;;;0.83;0.73;;;17.90;62.40;;;;;;4901355;29;20194;-49
2023/10/21 01:15:44;;;;;;;0.60;0.60;;;17.90;63.20;;;;;;4900009;29;20205;-49
2023/10/21 01:18:10;;;;;;;1.00;0.70;;;17.90;62.60;;;;;;4911956;29;20476;-49
2023/10/21 01:20:41;;;;;;;0.90;0.67;;;18.00;63.00;;;;;;4907337;29;20221;-50
2023/10/21 01:23:14;;;;;;;0.77;0.73;;;18.20;62.20;;;;;;4903765;29;20668;-48
2023/10/21 01:25:40;;;;;;;0.87;0.87;;;18.30;61.30;;;;;;4899337;29;20451;-54
2023/10/21 01:28:05;;;;;;;1.87;0.80;;;18.30;61.40;;;;;;4886462;29;20465;-52
2023/10/21 01:30:31;;;;;;;0.60;0.60;;;18.40;61.60;;;;;;4897744;29;20200;-49
2023/10/21 01:32:56;;;;;;;2.00;0.70;;;18.30;61.20;;;;;;4887711;29;20845;-51
2023/10/21 01:35:22;;;;;;;1.57;0.80;;;18.40;61.00;;;;;;4894632;29;20197;-48
2023/10/21 01:37:48;;;;;;;0.80;0.70;;;18.40;60.80;;;;;;4890005;29;20301;-47
2023/10/21 01:40:14;;;;;;;0.80;0.73;;;18.40;61.00;;;;;;4890580;29;20244;-48
2023/10/21 01:42:40;;;;;;;0.50;0.50;;;18.10;61.00;;;;;;4899414;29;20513;-52
2023/10/21 01:45:07;;;;;;;0.73;0.70;;;18.00;62.00;;;;;;4892309;29;20289;-47
2023/10/21 01:47:33;;;;;;;0.60;0.60;;;18.00;62.10;;;;;;4901620;29;20528;-48
2023/10/21 01:49:59;;;;;;;0.60;0.60;;;18.20;61.90;;;;;;4902898;29;20469;-52
2023/10/21 01:52:24;;;;;;;1.37;0.73;;;18.20;61.70;;;;;;4897120;29;22243;-48
2023/10/21 01:54:51;;;;;;;3.90;0.90;;;18.40;61.50;;;;;;4896265;29;20189;-48
2023/10/21 01:57:16;;;;;;;0.63;0.63;;;18.40;61.00;;;;;;4892300;29;20668;-47
2023/10/21 01:59:43;;;;;;;0.80;0.80;;;18.30;61.40;;;;;;4898381;29;20486;-48
2023/10/21 02:02:09;;;;;;;1.50;0.80;;;18.30;61.70;;;;;;4894557;29;20192;-50
2023/10/21 02:04:34;;;;;;;3.03;0.83;;;18.40;61.70;;;;;;4904209;29;20445;-47
2023/10/21 02:07:00;;;;;;;0.90;0.60;;;18.50;61.70;;;;;;4907527;29;20193;-51
2023/10/21 02:09:25;;;;;;;0.50;0.50;;;18.60;61.40;;;;;;4905425;29;20268;-50
2023/10/21 02:11:57;;;;;;;0.50;0.50;;;18.60;61.30;;;;;;4888753;29;20185;-48
2023/10/21 02:14:23;;;;;;;0.63;0.63;;;18.70;61.30;;;;;;4891884;29;20194;-48
2023/10/21 02:16:50;;;;;;;0.60;0.50;;;18.50;61.20;;;;;;4894568;29;20806;-51
2023/10/21 02:19:15;;;;;;;1.00;0.80;;;18.50;61.80;;;;;;4893405;29;20300;-48
2023/10/21 02:21:41;;;;;;;0.80;0.50;;;18.60;61.60;;;;;;4892772;29;21016;-49
2023/10/21 02:24:07;;;;;;;0.90;0.60;;;18.60;61.80;;;;;;4906824;29;20202;-48
2023/10/21 02:26:32;;;;;;;0.90;0.80;;;18.60;61.60;;;;;;4906240;29;20208;-53
2023/10/21 02:28:58;;;;;;;1.83;0.80;;;18.50;61.50;;;;;;4906474;29;20303;-50
2023/10/21 02:31:23;;;;;;;0.70;0.50;;;18.40;61.70;;;;;;4909003;29;20200;-53
2023/10/21 02:33:49;;;;;;;0.60;0.60;;;18.10;62.70;;;;;;4915573;29;20189;-54
2023/10/21 02:36:15;;;;;;;0.60;0.60;;;18.20;62.90;;;;;;4908904;29;20197;-48
2023/10/21 02:38:41;;;;;;;1.17;0.50;;;18.00;62.80;;;;;;4907138;29;20213;-54
2023/10/21 02:41:06;;;;;;;0.50;0.50;;;18.00;63.10;;;;;;4909552;29;20791;-48
2023/10/21 02:43:32;;;;;;;0.60;0.60;;;18.10;63.30;;;;;;4891374;29;20445;-52
2023/10/21 02:46:07;;;;;;;0.83;0.70;;;18.20;63.10;;;;;;4906593;29;20627;-51
2023/10/21 02:48:33;;;;;;;0.60;0.60;;;18.10;62.90;;;;;;4907508;29;21015;-50
2023/10/21 02:50:58;;;;;;;1.67;0.63;;;18.10;63.00;;;;;;4907754;29;20441;-50
2023/10/21 02:53:24;;;;;;;0.73;0.70;;;18.10;62.70;;;;;;4904130;29;20194;-49
2023/10/21 02:55:50;;;;;;;1.03;0.73;;;18.30;62.30;;;;;;4902994;29;20189;-51
2023/10/21 02:58:15;;;;;;;1.37;0.67;;;18.40;61.80;;;;;;4907402;29;20217;-51
2023/10/21 03:00:41;;;;;;;1.63;0.87;;;18.40;61.80;;;;;;4908048;29;20477;-52
2023/10/21 03:03:06;;;;;;;0.80;0.70;;;18.10;62.40;;;;;;4908532;29;20201;-51
2023/10/21 03:05:32;;;;;;;0.97;0.60;;;18.00;63.00;;;;;;4907346;29;20193;-51
2023/10/21 03:07:57;;;;;;;0.67;0.60;;;18.10;62.80;;;;;;4901762;29;20190;-50
2023/10/21 03:10:24;;;;;;;0.60;0.60;;;18.30;62.20;;;;;;4910223;29;20685;-53
2023/10/21 03:12:50;;;;;;;0.93;0.60;;;18.20;62.00;;;;;;4904370;29;20236;-49
2023/10/21 03:15:15;;;;;;;1.43;0.60;;;18.10;62.50;;;;;;4908665;29;20461;-48
2023/10/21 03:17:41;;;;;;;0.70;0.60;;;18.10;62.40;;;;;;4902852;29;20192;-49
2023/10/21 03:20:07;;;;;;;0.87;0.70;;;18.10;62.70;;;;;;4904383;29;20232;-51
2023/10/21 03:22:33;;;;;;;1.53;0.70;;;18.10;62.40;;;;;;4907327;29;20539;-54
2023/10/21 03:24:58;;;;;;;2.17;0.60;;;18.00;62.10;;;;;;4901826;29;20437;-49
2023/10/21 03:27:25;;;;;;;0.50;0.50;;;17.90;62.50;;;;;;4900868;29;20189;-49
2023/10/21 03:29:51;;;;;;;0.80;0.60;;;18.00;62.40;;;;;;4895055;29;20214;-49
2023/10/21 03:32:17;;;;;;;0.60;0.60;;;18.00;62.00;;;;;;4896079;29;20559;-46
2023/10/21 03:34:43;;;;;;;0.60;0.60;;;18.10;62.00;;;;;;4897542;29;20453;-51
2023/10/21 03:37:08;;;;;;;1.37;0.70;;;18.10;61.60;;;;;;4895744;29;20438;-52
2023/10/21 03:39:34;;;;;;;1.90;0.60;;;18.00;62.00;;;;;;4903096;29;20225;-48
2023/10/21 03:42:00;;;;;;;0.77;0.60;;;18.10;61.90;;;;;;4895939;29;20445;-48
2023/10/21 03:44:26;;;;;;;0.50;0.50;;;18.00;61.70;;;;;;4906706;29;20203;-48
2023/10/21 03:46:51;;;;;;;1.93;0.80;;;18.00;61.80;;;;;;4895251;29;20197;-49
2023/10/21 03:49:17;;;;;;;0.90;0.60;;;17.90;62.00;;;;;;4907810;29;20291;-49
2023/10/21 03:51:43;;;;;;;1.00;0.70;;;17.80;61.90;;;;;;4907731;29;20185;-49
2023/10/21 03:54:09;;;;;;;1.37;0.67;;;17.80;61.90;;;;;;4905323;29;20505;-50
2023/10/21 03:56:34;;;;;;;1.37;0.70;;;17.90;62.10;;;;;;4902280;29;20185;-48
2023/10/21 03:59:00;;;;;;;0.73;0.60;;;17.90;61.70;;;;;;4908979;29;20764;-47
2023/10/21 04:01:25;;;;;;;0.50;0.50;;;17.80;61.90;;;;;;4897533;29;20315;-51
2023/10/21 04:03:51;;;;;;;0.63;0.60;;;17.90;61.80;;;;;;4903460;29;20669;-50
2023/10/21 04:06:17;;;;;;;0.60;0.60;;;17.90;61.80;;;;;;4910806;29;20185;-47
2023/10/21 04:08:43;;;;;;;0.73;0.60;;;17.90;61.60;;;;;;4905125;29;20753;-49
2023/10/21 04:11:08;;;;;;;0.60;0.50;;;18.00;61.60;;;;;;4915968;29;20543;-50
2023/10/21 04:13:35;;;;;;;0.60;0.60;;;18.10;61.10;;;;;;4913048;29;20189;-51
2023/10/21 04:16:00;;;;;;;0.80;0.67;;;18.20;60.90;;;;;;4899470;29;20201;-48
2023/10/21 04:18:27;;;;;;;1.23;0.60;;;18.00;61.20;;;;;;4886529;29;20483;-47
2023/10/21 04:20:52;;;;;;;0.97;0.70;;;17.90;61.40;;;;;;4894547;29;20209;-48
2023/10/21 04:23:18;;;;;;;0.60;0.60;;;17.80;61.50;;;;;;4906749;29;20441;-49
2023/10/21 04:25:43;;;;;;;0.93;0.73;;;17.80;61.60;;;;;;4925514;29;20181;-53
2023/10/21 04:28:10;;;;;;;0.70;0.70;;;17.70;61.80;;;;;;4919173;29;20209;-50
2023/10/21 04:30:36;;;;;;;0.60;0.60;;;17.70;62.20;;;;;;4923102;29;20212;-49
2023/10/21 04:33:01;;;;;;;1.50;0.70;;;17.70;62.10;;;;;;4906267;29;20906;-52
2023/10/21 04:35:27;;;;;;;1.60;0.60;;;17.70;62.80;;;;;;4918963;29;20220;-50
2023/10/21 04:37:52;;;;;;;0.60;0.60;;;17.60;61.70;;;;;;4911471;29;20192;-48
2023/10/21 04:40:18;;;;;;;1.00;0.70;;;17.60;62.60;;;;;;4920015;29;20283;-49
2023/10/21 04:42:43;;;;;;;0.73;0.70;;;17.70;62.70;;;;;;4921563;29;20719;-49
2023/10/21 04:45:09;;;;;;;1.23;0.50;;;17.70;62.30;;;;;;4917302;29;20669;-47
2023/10/21 04:47:36;;;;;;;0.80;0.80;;;17.70;62.80;;;;;;4906521;29;21218;-52
2023/10/21 04:50:02;;;;;;;1.40;0.70;;;17.90;62.20;;;;;;4896985;29;20516;-47
2023/10/21 04:52:27;;;;;;;1.53;0.70;;;18.00;62.00;;;;;;4894123;29;20445;-53
2023/10/21 04:54:53;;;;;;;1.00;0.60;;;18.00;61.80;;;;;;4898013;29;20443;-49
2023/10/21 04:57:18;;;;;;;1.17;0.60;;;18.00;61.60;;;;;;4902452;29;20190;-46
2023/10/21 04:59:44;;;;;;;0.60;0.60;;;18.10;61.60;;;;;;4908097;29;20317;-51
2023/10/21 05:02:10;;;;;;;1.93;0.80;;;18.30;61.20;;;;;;4908236;29;20201;-48
2023/10/21 05:04:36;;;;;;;0.93;0.70;;;18.30;60.70;;;;;;4908339;29;20225;-49
2023/10/21 05:07:05;;;;;;;0.83;0.70;;;18.20;60.90;;;;;;4910785;29;20457;-51
2023/10/21 05:09:31;;;;;;;3.50;0.70;;;18.10;60.90;;;;;;4908729;29;20236;-53
2023/10/21 05:11:57;;;;;;;1.50;0.63;;;18.20;61.30;;;;;;4907211;29;20631;-50
2023/10/21 05:14:22;;;;;;;0.60;0.60;;;18.40;60.80;;;;;;4919001;29;20486;-52
2023/10/21 05:16:48;;;;;;;1.43;0.60;;;18.50;60.60;;;;;;4901520;29;20213;-47
2023/10/21 05:19:13;;;;;;;3.10;1.03;;;18.60;60.20;;;;;;4906300;29;20220;-47
2023/10/21 05:21:39;;;;;;;1.00;0.70;;;18.70;60.00;;;;;;4909431;29;20692;-47
2023/10/21 05:24:04;;;;;;;2.40;0.77;;;18.70;59.90;;;;;;4912791;29;20193;-48
2023/10/21 05:26:30;;;;;;;2.03;0.67;;;18.70;59.80;;;;;;4903130;29;20189;-49
2023/10/21 05:28:57;;;;;;;2.83;0.67;;;18.80;60.10;;;;;;4908320;29;20233;-47
2023/10/21 05:31:23;;;;;;;1.43;0.63;;;18.90;60.00;;;;;;4889036;29;20377;-47
2023/10/21 05:33:49;;;;;;;5.70;0.90;;;19.00;59.40;;;;;;4888118;29;20454;-48
2023/10/21 05:36:14;;;;;;;1.00;0.80;;;19.10;59.10;;;;;;4898379;29;20200;-48
2023/10/21 05:38:40;;;;;;;1.30;0.80;;;19.10;58.90;;;;;;4903342;29;20279;-51
2023/10/21 05:41:05;;;;;;;0.60;0.60;;;19.20;58.80;;;;;;4900127;29;20722;-47
2023/10/21 05:43:31;;;;;;;1.70;0.70;;;19.20;58.70;;;;;;4901359;29;20920;-47
2023/10/21 05:45:58;;;;;;;1.30;1.00;;;19.20;58.50;;;;;;4903105;29;20200;-50
2023/10/21 05:48:24;;;;;;;0.50;0.50;;;19.20;58.40;;;;;;4903704;29;20209;-49
2023/10/21 05:50:49;;;;;;;1.87;1.77;;;19.00;59.00;;;;;;4914438;29;20478;-48
2023/10/21 05:53:15;;;;;;;1.77;0.90;;;19.00;59.10;;;;;;4913542;29;20193;-49
2023/10/21 05:55:44;;;;;;;0.63;0.63;;;19.00;59.30;;;;;;4910590;29;20191;-49
2023/10/21 05:58:10;;;;;;;3.90;0.83;;;19.10;59.20;;;;;;4910547;29;21025;-47
2023/10/21 06:00:36;;;;;;;1.53;0.70;;;19.00;59.10;;;;;;4911217;29;20572;-47
2023/10/21 06:03:01;;;;;;;0.97;0.70;;;19.00;59.30;;;;;;4907964;29;20457;-47
2023/10/21 06:05:27;;;;;;;0.60;0.60;;;18.90;59.40;;;;;;4912129;29;20873;-49
2023/10/21 06:07:53;;;;;;;0.70;0.63;;;19.00;59.40;;;;;;4911399;29;20193;-49
2023/10/21 06:10:20;;;;;;;1.67;0.63;;;18.80;59.50;;;;;;4908732;29;20654;-47
2023/10/21 06:12:46;;;;;;;1.20;0.80;;;18.70;60.00;;;;;;4910568;29;20232;-49
2023/10/21 06:15:12;;;;;;;1.47;0.90;;;18.60;60.30;;;;;;4914970;29;20512;-47
2023/10/21 06:17:37;;;;;;;1.40;1.30;;;18.60;60.20;;;;;;4908885;29;20449;-49
2023/10/21 06:20:03;;;;;;;1.37;1.00;;;18.70;60.20;;;;;;4913358;29;20645;-48
2023/10/21 06:22:29;;;;;;;1.13;1.07;;;18.70;60.10;;;;;;4908727;29;20197;-48
2023/10/21 06:24:55;;;;;;;1.50;1.00;;;18.80;59.70;;;;;;4910018;29;20588;-47
2023/10/21 06:27:21;;;;;;;1.20;1.10;;;18.80;59.50;;;;;;4910493;29;20800;-50
2023/10/21 06:29:47;;;;;;;1.90;0.80;;;18.90;59.50;;;;;;4910258;29;20697;-48
2023/10/21 06:32:13;;;;;;;1.20;0.70;;;19.00;59.30;;;;;;4910605;29;20441;-48
2023/10/21 06:34:39;;;;;;;2.20;0.80;;;19.10;59.10;;;;;;4916308;29;20225;-48
2023/10/21 06:37:05;;;;;;;0.70;0.60;;;19.20;59.50;;;;;;4909192;29;20197;-47
2023/10/21 06:39:31;;;;;;;0.87;0.87;;;19.30;58.80;;;;;;4911847;29;20819;-48
2023/10/21 06:41:57;;;;;;;2.00;0.90;;;19.40;58.50;;;;;;4911911;29;20245;-49
2023/10/21 06:44:23;;;;;;;2.83;0.70;;;19.50;58.20;;;;;;4911966;29;20287;-49
2023/10/21 06:46:49;;;;;;;0.60;0.50;;;19.50;58.20;;;;;;4910121;29;20190;-50
2023/10/21 06:49:15;;;;;;;1.20;0.67;;;19.60;58.30;;;;;;4911597;29;20460;-47
2023/10/21 06:51:41;;;;;;;0.60;0.50;;;19.40;57.70;;;;;;4911462;29;20425;-48
2023/10/21 06:54:07;;;;;;;0.70;0.60;;;19.40;58.20;;;;;;4912529;29;20444;-47
2023/10/21 06:56:33;;;;;;;0.50;0.50;;;19.50;58.00;;;;;;4911101;29;20683;-47
2023/10/21 06:58:59;;;;;;;1.10;0.70;;;19.50;57.90;;;;;;4911808;29;20445;-47
2023/10/21 07:01:25;;;;;;;1.83;0.60;;;19.50;58.10;;;;;;4914156;29;20523;-50
2023/10/21 07:03:51;;;;;;;1.63;0.70;;;19.60;58.00;;;;;;4912655;29;21118;-48
2023/10/21 07:06:16;;;;;;;1.47;0.60;;;19.50;57.90;;;;;;4911420;29;20548;-49
2023/10/21 07:08:42;;;;;;;0.77;0.77;;;19.50;57.80;;;;;;4911945;29;20282;-47
2023/10/21 07:11:08;;;;;;;0.80;0.67;;;19.60;57.90;;;;;;4911657;29;20318;-47
2023/10/21 07:13:33;;;;;;;0.80;0.70;;;19.60;57.70;;;;;;4910110;29;20275;-48
2023/10/21 07:16:06;;;;;;;0.70;0.60;;;19.90;57.30;;;;;;4907489;29;20299;-48
2023/10/21 07:18:32;;;;;;;0.60;0.60;;;20.00;56.50;;;;;;4911372;29;20568;-50
2023/10/21 07:20:58;;;;;;;0.70;0.70;;;20.10;56.70;;;;;;4911799;29;20477;-48
2023/10/21 07:23:23;;;;;;;0.60;0.60;;;20.30;56.10;;;;;;4916264;29;20582;-50
2023/10/21 07:25:51;;;;;;;0.70;0.70;;;20.30;55.70;;;;;;4911912;29;20321;-47
2023/10/21 07:28:17;;;;;;;1.10;0.60;;;20.40;56.00;;;;;;4910882;29;20209;-47
2023/10/21 07:30:42;;;;;;;1.97;0.63;;;20.40;55.40;;;;;;4908942;29;20443;-47
2023/10/21 07:33:08;;;;;;;0.80;0.80;;;20.30;54.90;;;;;;4911425;29;20703;-48
2023/10/21 07:35:33;;;;;;;3.30;0.70;;;20.40;55.20;;;;;;4910943;29;20222;-49
2023/10/21 07:37:59;;;;;;;0.80;0.67;;;20.40;55.30;;;;;;4915701;29;20241;-47
2023/10/21 07:40:25;;;;;;;0.97;0.80;;;20.40;54.80;;;;;;4915208;29;20777;-47
2023/10/21 07:42:50;;;;;;;1.67;0.70;;;20.40;55.00;;;;;;4914292;29;20185;-49
2023/10/21 07:45:17;;;;;;;2.00;0.70;;;20.20;55.10;;;;;;4915627;29;20661;-50
2023/10/21 07:47:42;;;;;;;1.00;0.63;;;20.20;55.20;;;;;;4914305;29;20249;-49
2023/10/21 07:50:08;;;;;;;0.80;0.70;;;20.30;55.00;;;;;;4920130;29;20864;-47
2023/10/21 07:52:36;;;;;;;0.60;0.60;;;20.40;55.00;;;;;;4914974;29;20185;-48
2023/10/21 07:55:02;;;;;;;0.70;0.70;;;20.40;55.00;;;;;;4918612;29;20245;-48
2023/10/21 07:57:28;;;;;;;1.27;0.70;;;20.60;54.90;;;;;;4916620;29;20441;-48
2023/10/21 07:59:54;;;;;;;0.63;0.60;;;20.60;54.60;;;;;;4914916;29;20485;-50
2023/10/21 08:02:21;;;;;;;1.47;0.80;;;20.70;54.50;;;;;;4913094;29;20622;-48
2023/10/21 08:04:47;;;;;;;0.90;0.60;;;20.90;54.30;;;;;;4915532;29;20217;-49
2023/10/21 08:07:12;;;;;;;0.70;0.50;;;20.60;53.60;;;;;;4916789;29;20503;-51
2023/10/21 08:09:38;;;;;;;1.03;0.77;;;20.50;53.40;;;;;;4918340;29;20220;-49
2023/10/21 08:12:04;;;;;;;1.37;0.50;;;20.40;53.70;;;;;;4917501;29;20189;-49
2023/10/21 08:14:31;;;;;;;1.50;0.57;;;20.40;53.50;;;;;;4917851;29;20272;-49
2023/10/21 08:16:58;;;;;;;3.23;0.80;;;20.30;53.10;;;;;;4914111;29;20449;-47
2023/10/21 08:19:24;;;;;;;0.80;0.70;;;20.40;53.80;;;;;;4914245;29;20508;-48
2023/10/21 08:21:50;;;;;;;3.00;0.70;;;20.40;53.50;;;;;;4914526;29;20488;-51
2023/10/21 08:24:15;;;;;;;1.00;0.90;;;20.20;53.90;;;;;;4915417;29;20889;-49
2023/10/21 08:26:41;;;;;;;1.20;0.70;;;20.20;53.90;;;;;;4913805;29;20189;-47
2023/10/21 08:29:07;;;;;;;0.70;0.50;;;20.40;54.30;;;;;;4907332;29;20217;-53
2023/10/21 08:31:33;;;;;;;0.93;0.60;;;20.30;53.50;;;;;;4910448;29;20783;-51
2023/10/21 08:33:58;;;;;;;2.83;0.70;;;20.40;53.00;;;;;;4916159;29;20193;-50
2023/10/21 08:36:26;;;;;;;0.87;0.70;;;20.30;52.70;;;;;;4913671;29;20516;-49
2023/10/21 08:38:51;;;;;;;0.73;0.63;;;20.40;53.10;;;;;;4913287;29;20247;-49
2023/10/21 08:41:17;;;;;;;1.43;0.57;;;20.60;52.90;;;;;;4912443;29;20523;-48
2023/10/21 08:43:48;;;;;;;0.70;0.60;;;20.60;52.70;;;;;;4912606;29;20190;-47
2023/10/21 08:46:15;;;;;;;1.70;0.80;;;20.70;52.50;;;;;;4911155;29;20257;-49
2023/10/21 08:48:43;;;;;;;1.20;0.70;;;20.90;52.90;;;;;;4908958;29;20460;-49
2023/10/21 08:51:10;;;;;;;0.70;0.60;;;21.00;52.40;;;;;;4913129;29;20473;-51
2023/10/21 08:53:41;;;;;;;1.30;0.67;;;21.10;52.00;;;;;;4917275;29;20441;-47
2023/10/21 08:56:06;;;;;;;1.13;0.70;;;21.20;51.30;;;;;;4908854;29;20458;-51
2023/10/21 08:58:32;;;;;;;1.23;0.67;;;21.20;51.30;;;;;;4908365;29;20454;-52
2023/10/21 09:00:59;;;;;;;1.00;0.70;;;21.30;50.50;;;;;;4911092;29;20216;-49
2023/10/21 09:03:25;;;;;;;0.87;0.60;;;21.30;51.00;;;;;;4912098;29;20181;-54
2023/10/21 09:06:11;;;;;;;0.73;0.70;;;21.40;50.50;;;;;;4911967;29;20441;-53
2023/10/21 09:08:38;;;;;;;0.80;0.70;;;21.60;49.70;;;;;;4909713;28;20465;-49
2023/10/21 09:11:06;;;;;;;1.10;0.60;;;21.50;49.70;;;;;;4913567;29;20453;-48
2023/10/21 09:13:34;;;;;;;0.80;0.60;;;21.60;49.10;;;;;;4911095;29;22592;-50
2023/10/21 09:16:01;;;;;;;0.80;0.50;;;21.50;49.70;;;;;;4912445;29;20829;-48
2023/10/21 09:18:27;;;;;;;1.80;0.90;;;21.50;49.90;;;;;;4912036;29;20465;-48
2023/10/21 09:20:52;;;;;;;1.50;0.60;;;21.50;50.00;;;;;;4908203;29;20485;-50
2023/10/21 09:23:18;;;;;;;0.67;0.67;;;21.50;49.80;;;;;;4910366;29;20500;-51
2023/10/21 09:25:52;;;;;;;0.80;0.53;;;21.40;50.10;;;;;;4909828;29;20196;-47
2023/10/21 09:28:22;;;;;;;2.30;1.00;;;21.50;50.00;;;;;;4909314;29;20244;-52
2023/10/21 09:31:02;;;;;;;2.40;0.80;;;21.50;49.90;;;;;;4906024;29;21111;-53
2023/10/21 09:33:28;;;;;;;0.70;0.60;;;21.60;50.30;;;;;;4915246;29;21379;-54
2023/10/21 09:36:01;;;;;;;1.27;0.53;;;21.50;50.00;;;;;;4911104;29;20516;-54
2023/10/21 09:38:27;;;;;;;1.20;0.53;;;21.40;50.20;;;;;;4906762;29;20473;-49
2023/10/21 09:40:53;;;;;;;0.80;0.60;;;21.50;50.10;;;;;;4911502;29;20892;-54
2023/10/21 09:43:20;;;;;;;0.73;0.60;;;21.30;49.80;;;;;;4904668;29;20193;-52
2023/10/21 09:45:48;;;;;;;1.00;0.90;;;21.40;50.00;;;;;;4900468;29;20561;-51
2023/10/21 09:48:14;;;;;;;1.70;0.70;;;21.20;49.80;;;;;;4898376;29;20506;-51
2023/10/21 09:50:50;;;;;;;0.77;0.60;;;21.20;49.60;;;;;;4898823;29;20449;-51
2023/10/21 09:53:16;;;;;;;2.27;0.80;;;21.40;49.70;;;;;;4907897;29;20205;-53
2023/10/21 09:55:41;;;;;;;1.30;0.70;;;21.50;49.40;;;;;;4907946;29;20497;-53
2023/10/21 09:58:12;;;;;;;1.00;0.70;;;21.70;49.40;;;;;;4907980;29;20889;-49
2023/10/21 10:00:38;;;;;;;1.00;0.70;;;21.70;49.40;;;;;;4911886;29;20217;-51
2023/10/21 10:03:05;;;;;;;1.03;0.70;;;21.80;49.20;;;;;;4904876;29;20566;-51
2023/10/21 10:05:31;;;;;;;1.87;0.93;;;22.00;49.40;;;;;;4910419;29;20241;-50
2023/10/21 10:07:57;;;;;;;2.13;0.80;;;22.00;48.60;;;;;;4909065;29;20473;-50
2023/10/21 10:10:25;;;;;;;1.07;0.70;;;21.90;48.90;;;;;;4911131;29;20445;-53
2023/10/21 10:12:57;;;;;;;0.80;0.70;;;21.90;48.30;;;;;;4911385;29;20458;-50
2023/10/21 10:15:37;;;;;;;1.53;0.70;;;22.00;48.60;;;;;;4912230;29;20453;-54
2023/10/21 10:18:15;;;;;;;0.80;0.60;;;22.10;48.50;;;;;;4911611;29;20476;-48
2023/10/21 10:20:46;;;;;;;0.80;0.70;;;22.30;47.70;;;;;;4911806;29;20541;-49
2023/10/21 10:23:12;;;;;;;3.00;0.97;;;22.50;47.40;;;;;;4910108;29;20448;-51
2023/10/21 10:25:49;;;;;;;1.10;0.60;;;22.70;47.50;;;;;;4907794;29;20511;-48
2023/10/21 10:28:21;;;;;;;2.40;0.70;;;22.30;47.00;;;;;;4909555;29;20457;-46
2023/10/21 10:30:49;;;;;;;2.63;0.63;;;22.50;47.60;;;;;;4910554;29;20477;-48
2023/10/21 10:33:28;;;;;;;1.37;0.80;;;22.70;47.10;;;;;;4905629;29;20516;-49
2023/10/21 10:35:55;;;;;;;1.30;1.00;;;22.80;46.20;;;;;;4912587;29;20456;-49
2023/10/21 10:38:25;;;;;;;2.10;1.20;;;23.00;46.10;;;;;;4910963;29;20469;-49
2023/10/21 10:40:57;;;;;;;2.20;0.83;;;23.20;46.20;;;;;;4910788;29;20477;-47
2023/10/21 10:43:23;;;;;;;2.00;0.80;;;23.30;45.50;;;;;;4906671;29;20510;-51
2023/10/21 10:45:49;;;;;;;1.10;0.60;;;23.40;45.30;;;;;;4903476;29;20457;-50
2023/10/21 10:48:16;;;;;;;1.07;0.70;;;23.30;44.70;;;;;;4911045;29;20213;-48
2023/10/21 10:50:42;;;;;;;0.80;0.80;;;23.30;44.90;;;;;;4914998;29;20867;-51
2023/10/21 10:53:16;;;;;;;2.30;0.70;;;23.20;44.70;;;;;;4909130;29;20477;-52
2023/10/21 10:55:50;;;;;;;1.10;0.60;;;23.00;44.70;;;;;;4913187;29;20449;-51
2023/10/21 10:58:18;;;;;;;2.03;0.87;;;22.70;45.10;;;;;;4912131;29;20531;-50
2023/10/21 11:00:45;;;;;;;1.67;0.87;;;22.50;45.50;;;;;;4910421;29;20476;-51
2023/10/21 11:03:21;;;;;;;1.10;1.00;;;22.50;46.00;;;;;;4902638;29;20454;-51
2023/10/21 11:05:48;;;;;;;2.70;1.13;;;22.50;45.70;;;;;;4907440;29;20495;-52
2023/10/21 11:08:15;;;;;;;1.37;0.80;;;22.70;46.20;;;;;;4919944;29;20992;-51
2023/10/21 11:10:41;;;;;;;0.80;0.70;;;22.70;45.60;;;;;;4920611;29;20936;-50
2023/10/21 11:13:07;;;;;;;3.00;0.80;;;22.80;45.30;;;;;;4923618;29;20452;-52
2023/10/21 11:15:44;;;;;;;0.83;0.67;;;22.80;45.50;;;;;;4922800;29;20342;-53
2023/10/21 11:18:12;;;;;;;2.20;1.23;;;22.90;44.90;;;;;;4920895;29;20471;-50
2023/10/21 11:20:47;;;;;;;2.70;0.80;;;22.90;43.80;;;;;;4920486;29;20487;-50
2023/10/21 11:23:14;;;;;;;1.77;0.70;;;23.20;44.00;;;;;;4920223;29;20445;-50
2023/10/21 11:25:42;;;;;;;1.27;0.57;;;23.10;43.50;;;;;;4913116;29;20483;-53
2023/10/21 11:28:08;;;;;;;1.10;0.70;;;22.90;42.90;;;;;;4917699;29;20468;-51
2023/10/21 11:30:34;;;;;;;0.97;0.60;;;22.90;42.40;;;;;;4917129;29;20449;-48
2023/10/21 11:33:09;;;;;;;1.57;0.60;;;22.90;42.50;;;;;;4918372;29;20201;-50
2023/10/21 11:35:39;;;;;;;1.40;0.60;;;22.70;41.80;;;;;;4916279;29;20880;-48
2023/10/21 11:38:05;;;;;;;1.17;0.63;;;22.60;42.00;;;;;;4917582;29;20568;-50
2023/10/21 11:40:33;;;;;;;2.90;0.60;;;22.30;42.00;;;;;;4916545;29;20479;-53
2023/10/21 11:43:00;;;;;;;2.20;0.60;;;22.00;41.80;;;;;;4911082;29;20515;-50
2023/10/21 11:45:29;;;;;;;1.83;0.70;;;22.10;42.60;;;;;;4916385;29;20536;-52
2023/10/21 11:47:55;;;;;;;2.10;0.60;;;22.10;42.50;;;;;;4910595;29;21155;-50
2023/10/21 11:50:20;;;;;;;1.00;0.63;;;22.20;42.90;;;;;;4908996;29;20453;-50
2023/10/21 11:52:46;;;;;;;0.97;0.80;;;22.30;42.80;;;;;;4918381;29;20900;-51
2023/10/21 12:04:24;;;;;;;1.07;0.60;;;21.60;43.90;;;;;;4907703;29;20512;-50
2023/10/21 12:42:27;;;;;;;1.13;0.70;;;21.60;43.00;;;;;;4918869;29;20429;-53
2023/10/21 12:44:57;;;;;;;1.10;0.77;;;21.60;43.60;;;;;;4917270;29;20196;-49
2023/10/21 12:47:24;;;;;;;3.60;0.80;;;21.50;43.50;;;;;;4916093;29;20456;-51
2023/10/21 12:49:50;;;;;;;0.97;0.87;;;21.30;43.00;;;;;;4927536;29;20441;-50
2023/10/21 12:52:17;;;;;;;1.73;0.70;;;21.20;44.00;;;;;;4917199;29;20477;-49
2023/10/21 12:54:43;;;;;;;0.80;0.70;;;21.30;43.70;;;;;;4911392;29;20448;-55
2023/10/21 12:57:14;;;;;;;3.30;0.70;;;21.30;43.60;;;;;;4909968;29;20832;-52
2023/10/21 12:59:40;;;;;;;1.60;0.50;;;21.30;43.80;;;;;;4911741;29;20984;-52
2023/10/21 13:02:07;;;;;;;2.30;0.70;;;21.40;44.00;;;;;;4915894;29;20585;-52
2023/10/21 13:04:38;;;;;;;3.43;0.80;;;21.50;43.90;;;;;;4914231;29;20435;-51
2023/10/21 13:07:07;;;;;;;0.60;0.60;;;21.40;44.40;;;;;;4922536;29;20449;-52
2023/10/21 13:09:33;;;;;;;1.23;0.70;;;21.40;43.00;;;;;;4912386;29;20449;-49
2023/10/21 13:12:00;;;;;;;1.00;0.60;;;21.10;43.40;;;;;;4923633;29;20797;-51
2023/10/21 13:14:27;;;;;;;2.43;0.70;;;21.10;43.80;;;;;;4917477;29;20444;-51
2023/10/21 13:16:53;;;;;;;1.63;0.60;;;21.10;43.50;;;;;;4921431;29;20448;-49
2023/10/21 13:19:18;;;;;;;0.90;0.60;;;21.30;43.70;;;;;;4911310;29;20481;-49
2023/10/21 13:21:44;;;;;;;2.03;0.80;;;21.20;42.70;;;;;;4916039;29;20209;-50
2023/10/21 13:24:10;;;;;;;1.23;0.70;;;21.10;43.40;;;;;;4922356;29;20196;-51
2023/10/21 13:26:35;;;;;;;2.30;0.77;;;20.90;43.80;;;;;;4913743;29;20646;-53
2023/10/21 13:29:01;;;;;;;1.10;0.67;;;20.90;44.20;;;;;;4913382;29;20747;-49
2023/10/21 13:31:27;;;;;;;2.10;0.87;;;21.20;44.20;;;;;;4918254;29;20209;-51